Time;durP1;ratioP1;P1;durP2;ratioP2;P2;SDS_P1;SDS_P2;PMS_P1;PMS_P2;Temp;Humidity;BMP_temperature;BMP_pressure;BME280_temperature;BME280_humidity;BME280_pressure;Samples;Min_cycle;Max_cycle;Signal;HPM_P1;HPM_P2
2023/03/12 00:01:34;;;;;;;14.97;7.60;;;-2.50;99.90;;;;;;4439489;28;658981;-69
2023/03/12 00:04:21;;;;;;;18.57;7.10;;;-2.60;99.90;;;;;;4421350;28;658044;-69
2023/03/12 00:07:08;;;;;;;16.97;8.47;;;-2.60;99.90;;;;;;4440240;28;658252;-69
2023/03/12 00:09:55;;;;;;;14.37;7.00;;;-2.70;99.90;;;;;;4419221;28;658117;-69
2023/03/12 00:12:43;;;;;;;20.53;7.93;;;-2.70;99.90;;;;;;4438657;28;657383;-69
2023/03/12 00:15:30;;;;;;;15.57;7.32;;;-2.80;99.90;;;;;;4424197;28;657621;-69
2023/03/12 00:18:19;;;;;;;19.07;8.03;;;-2.70;99.90;;;;;;4438848;28;658687;-69
2023/03/12 00:21:06;;;;;;;17.53;7.23;;;-2.60;99.90;;;;;;4423192;28;657515;-69
2023/03/12 00:23:54;;;;;;;17.77;7.77;;;-2.60;99.90;;;;;;4438422;28;657530;-69
2023/03/12 00:26:41;;;;;;;14.47;7.30;;;-2.60;99.90;;;;;;4421898;28;658519;-69
2023/03/12 00:29:28;;;;;;;13.90;5.20;;;-2.60;99.90;;;;;;4439164;28;658081;-68
2023/03/12 00:32:16;;;;;;;16.70;7.63;;;-2.50;99.90;;;;;;4420487;28;658807;-69
2023/03/12 00:35:05;;;;;;;16.37;7.43;;;-2.50;99.90;;;;;;4435840;28;658386;-69
2023/03/12 00:37:53;;;;;;;17.00;7.50;;;-2.50;99.90;;;;;;4408451;28;657876;-68
2023/03/12 00:40:40;;;;;;;15.13;7.60;;;-2.40;99.90;;;;;;4425348;28;657576;-69
2023/03/12 00:43:27;;;;;;;16.67;7.80;;;-2.50;99.90;;;;;;4443979;28;658405;-68
2023/03/12 00:46:15;;;;;;;19.83;8.30;;;-2.40;99.90;;;;;;4437698;28;657430;-69
2023/03/12 00:49:02;;;;;;;14.60;7.60;;;-2.50;99.90;;;;;;4438751;28;658793;-69
2023/03/12 00:51:52;;;;;;;17.17;7.37;;;-2.50;99.90;;;;;;4432014;28;657680;-70
2023/03/12 00:54:40;;;;;;;11.80;6.33;;;-2.60;99.90;;;;;;4434952;28;658044;-69
2023/03/12 00:57:27;;;;;;;12.63;6.07;;;-2.60;99.90;;;;;;4444391;28;658704;-69
2023/03/12 01:00:16;;;;;;;13.43;6.37;;;-2.60;99.90;;;;;;4435268;28;658241;-69
2023/03/12 01:03:03;;;;;;;13.00;6.47;;;-2.60;99.90;;;;;;4434207;28;658645;-69
2023/03/12 01:05:54;;;;;;;11.93;6.47;;;-2.70;99.90;;;;;;4417152;28;657526;-69
2023/03/12 01:08:43;;;;;;;15.57;6.80;;;-2.70;99.90;;;;;;4413437;28;657585;-69
2023/03/12 01:11:31;;;;;;;12.07;6.10;;;-2.80;99.90;;;;;;4425297;28;657587;-69
2023/03/12 01:14:18;;;;;;;13.43;7.00;;;-2.90;99.90;;;;;;4438091;28;657630;-69
2023/03/12 01:17:06;;;;;;;18.53;7.40;;;-2.90;99.90;;;;;;4419041;28;658210;-69
2023/03/12 01:19:53;;;;;;;14.93;6.77;;;-3.00;99.90;;;;;;4439871;28;657931;-69
2023/03/12 01:22:40;;;;;;;11.67;6.07;;;-3.00;99.90;;;;;;4420360;28;657404;-69
2023/03/12 01:25:29;;;;;;;16.43;7.03;;;-2.90;99.90;;;;;;4445394;28;658257;-69
2023/03/12 01:28:16;;;;;;;15.50;6.40;;;-2.90;99.90;;;;;;4418014;28;657909;-69
2023/03/12 01:31:07;;;;;;;11.05;6.63;;;-2.80;99.90;;;;;;4438204;28;658238;-69
2023/03/12 01:33:54;;;;;;;11.90;5.63;;;-2.70;99.90;;;;;;4414034;28;657782;-69
2023/03/12 01:36:42;;;;;;;19.02;6.60;;;-2.70;99.90;;;;;;4416864;28;657943;-69
2023/03/12 01:39:29;;;;;;;16.03;6.80;;;-2.70;99.90;;;;;;4439844;28;657384;-68
2023/03/12 01:42:18;;;;;;;17.40;7.93;;;-2.60;99.90;;;;;;4414978;28;657810;-69
2023/03/12 01:45:07;;;;;;;15.70;8.03;;;-2.60;99.90;;;;;;4418946;28;658198;-69
2023/03/12 01:47:54;;;;;;;14.23;7.50;;;-2.50;99.90;;;;;;4430776;28;657542;-69
2023/03/12 01:50:42;;;;;;;17.63;8.27;;;-2.40;99.90;;;;;;4416787;28;657959;-68
2023/03/12 01:53:29;;;;;;;19.70;8.30;;;-2.40;99.90;;;;;;4437379;28;657454;-69
2023/03/12 01:56:18;;;;;;;18.70;7.30;;;-2.40;99.90;;;;;;4416256;28;659010;-68
2023/03/12 01:59:10;;;;;;;13.23;7.20;;;-2.40;99.90;;;;;;4428297;28;657747;-69
2023/03/12 02:01:57;;;;;;;16.30;7.90;;;-2.40;99.90;;;;;;4411316;28;658488;-69
2023/03/12 02:04:44;;;;;;;15.80;8.47;;;-2.30;99.90;;;;;;4439160;28;658123;-68
2023/03/12 02:07:32;;;;;;;16.17;8.47;;;-2.20;99.90;;;;;;4418573;28;658239;-69
2023/03/12 02:10:19;;;;;;;16.05;8.00;;;-2.30;99.90;;;;;;4437990;28;657816;-68
2023/03/12 02:13:07;;;;;;;14.20;6.37;;;-2.20;99.90;;;;;;4416450;28;658088;-68
2023/03/12 02:15:55;;;;;;;18.63;9.53;;;-2.20;99.90;;;;;;4439428;28;657414;-69
2023/03/12 02:18:42;;;;;;;19.23;9.27;;;-2.20;99.90;;;;;;4418187;28;658419;-69
2023/03/12 02:21:32;;;;;;;22.17;10.50;;;-2.20;99.90;;;;;;4433335;28;657804;-69
2023/03/12 02:24:25;;;;;;;23.40;10.17;;;-2.20;99.90;;;;;;4433729;28;658885;-69
2023/03/12 02:27:13;;;;;;;20.13;8.87;;;-2.20;99.90;;;;;;4395481;28;659045;-69
2023/03/12 02:30:01;;;;;;;11.60;5.70;;;-2.10;99.90;;;;;;4419899;28;657845;-69
2023/03/12 02:32:48;;;;;;;22.23;9.27;;;-2.10;99.90;;;;;;4442385;28;658403;-69
2023/03/12 02:35:36;;;;;;;21.33;9.87;;;-2.10;99.90;;;;;;4416721;28;659105;-69
2023/03/12 02:38:36;;;;;;;25.47;8.37;;;-2.00;99.90;;;;;;4444282;28;658216;-69
2023/03/12 02:41:24;;;;;;;21.67;8.93;;;-2.10;99.90;;;;;;4417177;28;658086;-69
2023/03/12 02:44:14;;;;;;;20.87;9.27;;;-2.10;99.90;;;;;;4420370;28;657298;-69
2023/03/12 02:47:01;;;;;;;16.03;7.23;;;-2.10;99.90;;;;;;4421485;28;657327;-69
2023/03/12 02:49:49;;;;;;;23.90;8.87;;;-2.10;99.90;;;;;;4438284;28;657220;-68
2023/03/12 02:52:37;;;;;;;16.60;8.00;;;-2.00;99.90;;;;;;4424040;28;657465;-69
2023/03/12 02:55:24;;;;;;;17.77;8.07;;;-2.00;99.90;;;;;;4438638;28;657752;-68
2023/03/12 02:58:11;;;;;;;19.27;9.40;;;-2.00;99.90;;;;;;4423463;28;657712;-69
2023/03/12 03:01:00;;;;;;;20.15;8.57;;;-2.10;99.90;;;;;;4444463;28;657499;-69
2023/03/12 03:03:47;;;;;;;18.17;8.90;;;-2.00;99.90;;;;;;4410651;28;659205;-69
2023/03/12 03:06:34;;;;;;;19.55;9.30;;;-2.00;99.90;;;;;;4436890;28;658366;-68
2023/03/12 03:09:22;;;;;;;16.90;8.23;;;-2.00;99.90;;;;;;4416508;28;657978;-69
2023/03/12 03:12:09;;;;;;;18.87;8.87;;;-2.00;99.90;;;;;;4441796;28;658001;-69
2023/03/12 03:14:56;;;;;;;19.83;8.30;;;-2.00;99.90;;;;;;4417457;28;657703;-69
2023/03/12 03:17:45;;;;;;;22.80;10.00;;;-1.90;99.90;;;;;;4434133;28;657907;-69
2023/03/12 03:20:32;;;;;;;18.37;8.10;;;-1.90;99.90;;;;;;4413615;28;659332;-69
2023/03/12 03:23:19;;;;;;;25.65;10.43;;;-1.90;99.90;;;;;;4442455;28;658039;-69
2023/03/12 03:26:06;;;;;;;21.43;9.50;;;-1.90;99.90;;;;;;4421466;28;659317;-68
2023/03/12 03:28:54;;;;;;;23.47;9.73;;;-2.00;99.90;;;;;;4433418;28;658208;-69
2023/03/12 03:31:41;;;;;;;26.92;12.73;;;-2.00;99.90;;;;;;4417443;28;657514;-68
2023/03/12 03:34:30;;;;;;;27.90;13.02;;;-2.00;99.90;;;;;;4436177;28;658778;-69
2023/03/12 03:37:17;;;;;;;31.23;8.77;;;-2.10;99.90;;;;;;4414381;28;659333;-68
2023/03/12 03:40:05;;;;;;;28.23;12.23;;;-2.10;99.90;;;;;;4437003;28;657294;-68
2023/03/12 03:42:52;;;;;;;30.73;12.27;;;-2.10;99.90;;;;;;4420255;28;660042;-69
2023/03/12 03:45:43;;;;;;;18.80;8.67;;;-2.20;99.90;;;;;;4432163;28;658667;-68
2023/03/12 03:48:30;;;;;;;30.13;13.13;;;-2.20;99.90;;;;;;4404835;28;658206;-69
2023/03/12 03:51:19;;;;;;;30.00;12.33;;;-2.20;99.90;;;;;;4426721;28;659389;-68
2023/03/12 03:54:06;;;;;;;22.07;8.77;;;-2.30;99.90;;;;;;4412539;28;659369;-69
2023/03/12 03:56:54;;;;;;;29.60;11.97;;;-2.40;99.90;;;;;;4424990;28;657722;-68
2023/03/12 03:59:41;;;;;;;26.80;12.10;;;-2.50;99.90;;;;;;4402831;28;658984;-68
2023/03/12 04:02:28;;;;;;;24.83;11.80;;;-2.50;99.90;;;;;;4426034;28;659980;-68
2023/03/12 04:05:18;;;;;;;30.47;13.53;;;-2.70;99.90;;;;;;4407915;28;658271;-69
2023/03/12 04:08:07;;;;;;;32.70;13.30;;;-2.80;99.90;;;;;;4406078;28;659395;-69
2023/03/12 04:10:54;;;;;;;26.57;12.17;;;-2.80;99.90;;;;;;4421415;28;658442;-68
2023/03/12 04:13:41;;;;;;;30.70;13.13;;;-3.00;99.90;;;;;;4403431;28;659007;-68
2023/03/12 04:16:29;;;;;;;27.73;12.30;;;-3.00;99.90;;;;;;4430043;28;658636;-68
2023/03/12 04:19:16;;;;;;;24.43;10.50;;;-3.10;99.90;;;;;;4411623;28;658911;-69
2023/03/12 04:22:03;;;;;;;29.30;11.80;;;-3.10;99.90;;;;;;4423095;28;659178;-69
2023/03/12 04:24:52;;;;;;;29.77;13.03;;;-3.20;99.90;;;;;;4408007;28;658427;-69
2023/03/12 04:27:39;;;;;;;29.40;12.93;;;-3.20;99.90;;;;;;4426246;28;658352;-68
2023/03/12 04:30:26;;;;;;;31.05;12.50;;;-3.30;99.90;;;;;;4411399;28;658919;-68
2023/03/12 04:33:13;;;;;;;30.00;13.83;;;-3.30;99.90;;;;;;4430673;28;660599;-69
2023/03/12 04:36:01;;;;;;;32.07;13.47;;;-3.30;99.90;;;;;;4408117;28;658650;-68
2023/03/12 04:38:48;;;;;;;27.43;12.40;;;-3.40;99.90;;;;;;4430700;28;659270;-68
2023/03/12 04:41:37;;;;;;;28.25;12.68;;;-3.40;99.90;;;;;;4411146;28;659055;-69
2023/03/12 04:44:24;;;;;;;31.93;12.93;;;-3.40;99.90;;;;;;4430294;28;659136;-68
2023/03/12 04:47:11;;;;;;;26.23;10.73;;;-3.30;99.90;;;;;;4402077;28;658688;-68
2023/03/12 04:49:58;;;;;;;30.27;13.93;;;-3.30;99.90;;;;;;4434629;28;659579;-69
2023/03/12 04:52:46;;;;;;;31.03;13.57;;;-3.30;99.90;;;;;;4414265;28;658683;-68
2023/03/12 04:55:33;;;;;;;31.23;13.40;;;-3.20;99.90;;;;;;4434141;28;658731;-68
2023/03/12 04:58:22;;;;;;;23.75;11.15;;;-3.20;99.90;;;;;;4416490;28;658683;-69
2023/03/12 05:01:14;;;;;;;29.03;12.90;;;-3.10;99.90;;;;;;4440563;28;657986;-68
2023/03/12 05:04:02;;;;;;;28.15;12.48;;;-3.10;99.90;;;;;;4391711;28;659020;-69
2023/03/12 05:06:49;;;;;;;32.13;14.30;;;-3.10;99.90;;;;;;4433877;28;659190;-68
2023/03/12 05:09:36;;;;;;;27.63;12.40;;;-3.00;99.90;;;;;;4412095;28;658737;-68
2023/03/12 05:12:23;;;;;;;24.70;11.70;;;-3.00;99.90;;;;;;4434176;28;659593;-69
2023/03/12 05:15:12;;;;;;;31.53;14.40;;;-2.90;99.90;;;;;;4418470;28;659850;-69
2023/03/12 05:17:59;;;;;;;33.95;13.15;;;-2.80;99.90;;;;;;4434804;28;659019;-68
2023/03/12 05:20:46;;;;;;;27.17;12.83;;;-2.70;99.90;;;;;;4402804;28;658733;-68
2023/03/12 05:23:34;;;;;;;22.80;10.87;;;-2.70;99.90;;;;;;4437861;28;658400;-68
2023/03/12 05:26:22;;;;;;;22.00;9.27;;;-2.50;99.90;;;;;;4413598;28;658736;-68
2023/03/12 05:29:09;;;;;;;28.90;11.87;;;-2.60;99.90;;;;;;4441971;28;657982;-68
2023/03/12 05:31:58;;;;;;;27.03;10.23;;;-2.50;99.90;;;;;;4415995;28;658642;-68
2023/03/12 05:34:45;;;;;;;31.60;13.13;;;-2.50;99.90;;;;;;4413542;28;658721;-68
2023/03/12 05:37:32;;;;;;;27.07;12.73;;;-2.50;99.90;;;;;;4436018;28;660354;-69
2023/03/12 05:40:20;;;;;;;23.57;10.77;;;-2.40;99.90;;;;;;4432951;28;658241;-69
2023/03/12 05:43:07;;;;;;;25.77;11.70;;;-2.30;99.90;;;;;;4440477;28;658949;-68
2023/03/12 05:45:58;;;;;;;20.80;9.90;;;-2.20;99.90;;;;;;4436409;28;658366;-69
2023/03/12 05:48:47;;;;;;;28.80;11.40;;;-2.20;99.90;;;;;;4412054;28;657290;-69
2023/03/12 05:51:34;;;;;;;28.20;11.68;;;-2.20;99.90;;;;;;4433806;28;658975;-68
2023/03/12 05:54:21;;;;;;;24.33;11.57;;;-2.20;99.90;;;;;;4412125;28;659177;-68
2023/03/12 05:57:09;;;;;;;31.03;12.33;;;-2.20;99.90;;;;;;4431772;28;658401;-68
2023/03/12 05:59:56;;;;;;;23.40;11.77;;;-2.20;99.90;;;;;;4412700;28;658489;-69
2023/03/12 06:02:43;;;;;;;24.53;10.90;;;-2.10;99.90;;;;;;4434788;28;660108;-68
2023/03/12 06:05:32;;;;;;;27.17;10.23;;;-2.10;99.90;;;;;;4413221;28;658766;-69
2023/03/12 06:08:19;;;;;;;24.03;11.03;;;-2.10;99.90;;;;;;4433140;28;660055;-68
2023/03/12 06:11:07;;;;;;;21.43;8.43;;;-2.00;99.90;;;;;;4411505;28;659423;-68
2023/03/12 06:13:54;;;;;;;25.23;10.53;;;-2.00;99.90;;;;;;4425249;28;658057;-68
2023/03/12 06:16:41;;;;;;;27.60;10.23;;;-1.90;99.90;;;;;;4404097;28;659138;-68
2023/03/12 06:19:28;;;;;;;20.80;9.30;;;-1.90;99.90;;;;;;4415830;28;659031;-68
2023/03/12 06:22:17;;;;;;;14.10;6.70;;;-1.90;99.90;;;;;;4415935;28;658900;-68
2023/03/12 06:25:05;;;;;;;24.30;9.20;;;-2.00;99.90;;;;;;4441007;28;657625;-68
2023/03/12 06:27:52;;;;;;;23.17;10.60;;;-1.90;99.90;;;;;;4419692;28;658140;-69
2023/03/12 06:30:40;;;;;;;24.10;11.17;;;-1.80;99.90;;;;;;4435176;28;659392;-68
2023/03/12 06:33:27;;;;;;;24.43;9.37;;;-1.80;99.90;;;;;;4407917;28;659430;-68
2023/03/12 06:36:14;;;;;;;21.47;9.17;;;-1.70;99.90;;;;;;4424367;28;657876;-68
2023/03/12 06:39:05;;;;;;;23.17;10.87;;;-1.80;99.90;;;;;;4416021;28;658750;-68
2023/03/12 06:41:53;;;;;;;16.17;8.60;;;-1.70;99.90;;;;;;4407306;28;658650;-69
2023/03/12 06:44:41;;;;;;;20.80;9.43;;;-1.70;99.90;;;;;;4428567;28;659097;-69
2023/03/12 06:47:28;;;;;;;19.70;9.67;;;-1.70;99.90;;;;;;4431130;28;658130;-69
2023/03/12 06:50:15;;;;;;;18.52;8.23;;;-1.70;99.90;;;;;;4420549;28;657523;-68
2023/03/12 06:53:03;;;;;;;22.93;9.67;;;-1.50;99.90;;;;;;4438452;28;658515;-68
2023/03/12 06:55:52;;;;;;;18.97;8.97;;;-1.50;99.90;;;;;;4420120;28;657836;-68
2023/03/12 06:58:39;;;;;;;14.87;6.07;;;-1.50;99.90;;;;;;4438308;28;657630;-68
2023/03/12 07:01:26;;;;;;;16.33;7.47;;;-1.30;99.90;;;;;;4410940;28;657529;-68
2023/03/12 07:04:13;;;;;;;21.27;9.40;;;-1.30;99.90;;;;;;4436369;28;658456;-69
2023/03/12 07:07:01;;;;;;;19.77;9.17;;;-1.30;99.90;;;;;;4412386;28;657814;-69
2023/03/12 07:09:48;;;;;;;17.40;7.83;;;-1.20;99.90;;;;;;4436593;28;657279;-68
2023/03/12 07:12:37;;;;;;;11.88;5.75;;;-1.10;99.90;;;;;;4426767;28;657206;-68
2023/03/12 07:15:24;;;;;;;14.47;7.30;;;-1.20;99.90;;;;;;4438632;28;657653;-67
2023/03/12 07:18:11;;;;;;;16.47;8.07;;;-1.10;99.90;;;;;;4425963;28;657983;-68
2023/03/12 07:20:58;;;;;;;14.87;7.90;;;-0.80;99.90;;;;;;4438566;28;657687;-69
2023/03/12 07:23:46;;;;;;;18.73;8.50;;;-0.70;99.90;;;;;;4423514;28;658400;-69
2023/03/12 07:26:34;;;;;;;20.70;8.82;;;-0.70;99.90;;;;;;4444519;28;657967;-68
2023/03/12 07:29:22;;;;;;;16.00;7.30;;;-0.60;99.90;;;;;;4425352;28;658492;-69
2023/03/12 07:32:10;;;;;;;20.17;8.90;;;-0.60;99.90;;;;;;4442027;28;657883;-70
2023/03/12 07:34:57;;;;;;;14.60;6.87;;;-0.70;99.90;;;;;;4445823;28;657750;-69
2023/03/12 07:37:44;;;;;;;17.53;7.63;;;-0.50;99.90;;;;;;4430401;28;657122;-68
2023/03/12 07:40:32;;;;;;;17.70;8.10;;;-0.10;99.90;;;;;;4409072;28;658447;-69
2023/03/12 07:43:19;;;;;;;13.20;6.40;;;0.00;99.90;;;;;;4438134;28;658299;-68
2023/03/12 07:46:08;;;;;;;13.50;6.63;;;-0.30;99.90;;;;;;4420631;28;656531;-68
2023/03/12 07:48:55;;;;;;;14.07;5.53;;;-0.20;99.90;;;;;;4429512;28;657658;-70
2023/03/12 07:51:42;;;;;;;16.97;8.10;;;-0.20;99.90;;;;;;4435725;28;659140;-68
2023/03/12 07:54:30;;;;;;;18.13;8.10;;;-0.20;99.90;;;;;;4444395;28;657458;-69
2023/03/12 07:57:17;;;;;;;19.23;9.17;;;-0.20;99.90;;;;;;4447893;28;657618;-69
2023/03/12 08:00:09;;;;;;;14.73;7.20;;;0.00;99.90;;;;;;4441393;28;657329;-69
2023/03/12 08:02:57;;;;;;;19.87;7.57;;;0.20;99.90;;;;;;4420025;28;656313;-69
2023/03/12 08:05:44;;;;;;;15.40;7.47;;;0.10;99.90;;;;;;4436903;28;656236;-68
2023/03/12 08:08:32;;;;;;;17.50;7.53;;;-0.10;99.90;;;;;;4421650;28;657016;-68
2023/03/12 08:11:19;;;;;;;27.87;10.30;;;0.40;99.90;;;;;;4439824;28;657736;-68
2023/03/12 08:14:06;;;;;;;19.30;9.03;;;0.30;99.90;;;;;;4418059;28;657421;-69
2023/03/12 08:16:53;;;;;;;17.40;7.37;;;0.40;99.90;;;;;;4437377;28;656647;-67
2023/03/12 08:19:42;;;;;;;13.90;6.07;;;0.60;99.90;;;;;;4420613;28;657195;-68
2023/03/12 08:22:29;;;;;;;18.93;8.30;;;0.60;99.90;;;;;;4433186;28;656051;-68
2023/03/12 08:25:17;;;;;;;11.80;5.80;;;1.00;99.90;;;;;;4414381;28;657233;-72
2023/03/12 08:28:05;;;;;;;17.13;7.30;;;1.30;99.90;;;;;;4434891;28;656009;-71
2023/03/12 08:30:53;;;;;;;12.13;6.07;;;1.20;99.90;;;;;;4409760;28;656992;-71
2023/03/12 08:33:42;;;;;;;10.80;5.83;;;1.50;99.90;;;;;;4419518;28;656482;-72
2023/03/12 08:36:31;;;;;;;10.73;5.50;;;1.30;99.90;;;;;;4440655;28;656770;-72
2023/03/12 08:39:18;;;;;;;18.63;7.93;;;1.60;99.90;;;;;;4420366;28;657674;-72
2023/03/12 08:42:06;;;;;;;12.18;6.60;;;1.70;99.90;;;;;;4423628;28;656666;-69
2023/03/12 08:44:53;;;;;;;13.00;5.67;;;1.80;99.90;;;;;;4421941;28;657021;-67
2023/03/12 08:47:41;;;;;;;10.10;4.67;;;1.70;99.90;;;;;;4421426;28;657242;-68
2023/03/12 08:50:30;;;;;;;8.97;4.70;;;2.20;99.90;;;;;;4447638;28;657525;-71
2023/03/12 08:53:19;;;;;;;10.77;5.23;;;2.30;99.90;;;;;;4423886;28;657737;-68
2023/03/12 08:56:07;;;;;;;12.03;4.90;;;2.10;99.90;;;;;;4421579;28;656831;-68
2023/03/12 08:58:54;;;;;;;8.87;4.27;;;2.00;99.90;;;;;;4423038;28;656973;-69
2023/03/12 09:01:42;;;;;;;7.93;4.30;;;1.80;99.90;;;;;;4404285;28;656002;-67
2023/03/12 09:04:29;;;;;;;8.87;4.83;;;1.50;99.90;;;;;;4434063;28;655963;-68
2023/03/12 09:07:17;;;;;;;7.97;4.27;;;1.60;99.90;;;;;;4407616;28;655554;-68
2023/03/12 09:10:06;;;;;;;10.63;5.10;;;2.10;99.90;;;;;;4426609;28;655464;-67
2023/03/12 09:12:54;;;;;;;9.10;4.97;;;1.90;99.90;;;;;;4403607;28;656738;-67
2023/03/12 09:15:41;;;;;;;14.70;4.23;;;2.30;99.90;;;;;;4413159;28;655559;-67
2023/03/12 09:18:28;;;;;;;12.57;5.60;;;1.60;99.90;;;;;;4428939;28;657820;-67
2023/03/12 09:21:15;;;;;;;14.17;5.80;;;2.40;99.90;;;;;;4421586;28;656740;-68
2023/03/12 09:24:03;;;;;;;13.00;4.67;;;2.60;99.90;;;;;;4423883;28;656250;-67
2023/03/12 09:26:52;;;;;;;10.43;4.07;;;2.90;99.90;;;;;;4407194;28;656614;-69
2023/03/12 09:29:40;;;;;;;11.43;5.33;;;2.90;99.90;;;;;;4430143;28;657487;-69
2023/03/12 09:32:27;;;;;;;9.27;5.43;;;3.50;99.90;;;;;;4405264;28;657301;-70
2023/03/12 09:35:15;;;;;;;7.70;4.80;;;3.30;99.90;;;;;;4427339;28;655394;-73
2023/03/12 09:38:03;;;;;;;9.40;4.23;;;3.90;99.90;;;;;;4402893;28;656118;-74
2023/03/12 09:40:50;;;;;;;12.10;5.47;;;3.50;99.90;;;;;;4416312;28;656439;-72
2023/03/12 09:43:40;;;;;;;13.60;5.77;;;3.70;99.90;;;;;;4428778;28;657105;-72
2023/03/12 09:46:30;;;;;;;11.67;5.63;;;3.70;99.90;;;;;;4415701;28;657304;-71
2023/03/12 09:49:18;;;;;;;10.07;4.67;;;4.00;99.90;;;;;;4407572;28;658008;-71
2023/03/12 09:52:11;;;;;;;7.83;3.57;;;3.70;99.90;;;;;;4405069;28;656613;-72
2023/03/12 09:55:01;;;;;;;13.50;5.43;;;2.90;99.90;;;;;;4404942;28;656132;-70
2023/03/12 09:57:49;;;;;;;12.50;5.73;;;2.70;99.90;;;;;;4399630;28;657237;-71
2023/03/12 10:00:38;;;;;;;10.67;4.60;;;3.00;99.90;;;;;;4407240;28;656595;-69
2023/03/12 10:03:33;;;;;;;10.30;4.87;;;2.80;99.90;;;;;;4417329;28;656663;-70
2023/03/12 10:06:21;;;;;;;14.30;5.30;;;2.60;99.90;;;;;;4392534;28;656650;-71
2023/03/12 10:09:18;;;;;;;9.90;4.73;;;3.50;99.90;;;;;;4430078;28;656738;-69
2023/03/12 10:12:10;;;;;;;10.73;4.43;;;3.80;99.90;;;;;;4378611;28;655995;-70
2023/03/12 10:15:05;;;;;;;11.27;5.17;;;4.00;99.90;;;;;;4395584;28;657657;-71
2023/03/12 10:18:00;;;;;;;10.20;4.33;;;3.60;99.90;;;;;;4376827;28;656846;-71
2023/03/12 10:20:54;;;;;;;12.23;5.63;;;3.80;99.90;;;;;;4396270;28;656689;-72
2023/03/12 10:23:48;;;;;;;10.50;4.97;;;3.50;99.90;;;;;;4408533;28;656415;-72
2023/03/12 10:26:38;;;;;;;13.80;5.00;;;4.10;99.90;;;;;;4378015;28;657000;-71
2023/03/12 10:29:26;;;;;;;11.10;5.20;;;4.80;99.90;;;;;;4419342;28;656560;-71
2023/03/12 10:32:15;;;;;;;10.37;5.27;;;4.70;99.90;;;;;;4420391;28;656878;-70
2023/03/12 10:35:12;;;;;;;9.53;4.60;;;5.10;99.90;;;;;;4403319;28;657716;-71
2023/03/12 10:38:00;;;;;;;10.73;5.37;;;4.50;99.90;;;;;;4401982;28;655997;-72
2023/03/12 10:40:47;;;;;;;12.67;5.87;;;4.60;99.90;;;;;;4403218;28;657278;-72
2023/03/12 10:43:34;;;;;;;10.90;5.43;;;4.30;99.90;;;;;;4427251;28;656347;-72
2023/03/12 10:46:43;;;;;;;13.40;5.27;;;4.20;99.90;;;;;;4412721;28;657021;-71
2023/03/12 10:49:32;;;;;;;11.63;5.03;;;4.70;99.90;;;;;;4412429;28;656845;-69
2023/03/12 10:52:21;;;;;;;8.90;4.10;;;4.40;98.70;;;;;;4427075;28;655655;-67
2023/03/12 10:55:12;;;;;;;14.45;5.82;;;4.10;99.90;;;;;;4423924;28;656184;-71
2023/03/12 10:57:59;;;;;;;15.23;5.87;;;4.10;99.90;;;;;;4417422;28;656622;-71
2023/03/12 11:00:55;;;;;;;10.17;4.80;;;4.30;99.90;;;;;;4424610;28;656459;-72
2023/03/12 11:03:42;;;;;;;11.37;5.30;;;4.40;99.90;;;;;;4420392;28;657059;-69
2023/03/12 11:06:30;;;;;;;8.50;4.17;;;3.90;99.90;;;;;;4445706;28;656400;-72
2023/03/12 11:09:19;;;;;;;9.43;4.80;;;4.50;98.70;;;;;;4448012;28;657729;-69
2023/03/12 11:12:23;;;;;;;13.83;5.73;;;4.20;99.90;;;;;;4421765;28;655508;-69
2023/03/12 11:15:30;;;;;;;8.60;3.73;;;4.20;99.90;;;;;;4386385;28;656419;-71
2023/03/12 11:18:24;;;;;;;13.03;6.70;;;4.40;98.30;;;;;;4382690;28;655732;-69
2023/03/12 11:21:16;;;;;;;12.43;4.93;;;4.70;99.90;;;;;;4424147;28;656368;-71
2023/03/12 11:24:09;;;;;;;11.57;5.87;;;4.80;99.10;;;;;;4420001;28;657879;-70
2023/03/12 11:27:01;;;;;;;15.37;6.57;;;4.50;99.40;;;;;;4389624;28;656355;-71
2023/03/12 11:29:48;;;;;;;11.30;5.63;;;5.10;99.80;;;;;;4420327;28;656688;-71
2023/03/12 11:32:37;;;;;;;13.67;5.87;;;4.70;97.30;;;;;;4418818;28;656682;-71
2023/03/12 11:35:30;;;;;;;14.47;6.00;;;5.00;98.50;;;;;;4439757;28;656929;-71
2023/03/12 11:38:18;;;;;;;12.07;5.60;;;5.80;99.90;;;;;;4391608;28;657411;-71
2023/03/12 11:41:18;;;;;;;12.03;5.27;;;6.30;96.90;;;;;;4414854;28;656778;-71
2023/03/12 11:44:16;;;;;;;13.07;5.20;;;6.20;93.10;;;;;;4414323;28;656527;-69
2023/03/12 11:47:11;;;;;;;10.23;4.00;;;5.10;92.60;;;;;;4394352;28;656990;-71
2023/03/12 11:50:08;;;;;;;13.77;4.63;;;4.30;95.90;;;;;;4390448;28;657384;-71
2023/03/12 11:53:12;;;;;;;10.70;4.67;;;4.20;96.30;;;;;;4373901;28;656822;-71
2023/03/12 11:56:09;;;;;;;9.13;4.57;;;4.90;97.50;;;;;;4398732;28;657076;-71
2023/03/12 11:59:20;;;;;;;10.10;3.73;;;4.60;96.70;;;;;;4380896;28;655882;-71
2023/03/12 12:02:20;;;;;;;15.77;4.37;;;4.80;95.30;;;;;;4360942;28;657087;-71
2023/03/12 12:05:21;;;;;;;7.20;3.97;;;4.90;95.70;;;;;;4367457;28;657521;-70
2023/03/12 12:08:24;;;;;;;15.30;3.97;;;5.20;94.70;;;;;;4397383;28;656550;-71
2023/03/12 12:11:13;;;;;;;9.80;4.30;;;5.30;93.80;;;;;;4375723;28;657549;-70
2023/03/12 12:14:07;;;;;;;10.33;4.50;;;4.40;94.00;;;;;;4410302;28;655627;-71
2023/03/12 12:17:01;;;;;;;8.33;3.80;;;4.70;95.80;;;;;;4398915;28;656594;-71
2023/03/12 12:20:00;;;;;;;11.80;4.53;;;4.70;95.60;;;;;;4387749;28;655669;-71
2023/03/12 12:22:53;;;;;;;9.17;4.07;;;4.30;96.60;;;;;;4402528;28;657459;-71
2023/03/12 12:25:49;;;;;;;9.00;3.43;;;4.90;98.90;;;;;;4395608;28;655519;-70
2023/03/12 12:28:50;;;;;;;8.40;3.22;;;5.50;96.10;;;;;;4400337;28;656130;-68
2023/03/12 12:31:41;;;;;;;10.83;4.10;;;4.60;93.70;;;;;;4401894;28;655167;-70
2023/03/12 12:34:58;;;;;;;7.17;3.27;;;5.00;97.30;;;;;;4396179;28;657236;-70
2023/03/12 12:37:49;;;;;;;9.70;3.90;;;4.70;95.00;;;;;;4404191;28;655046;-70
2023/03/12 12:40:37;;;;;;;8.03;4.27;;;4.90;96.40;;;;;;4408898;28;656368;-70
2023/03/12 12:43:27;;;;;;;7.93;4.03;;;5.20;96.00;;;;;;4421188;28;656059;-70
2023/03/12 12:46:17;;;;;;;13.27;3.87;;;4.60;94.40;;;;;;4430491;28;655554;-70
2023/03/12 12:49:06;;;;;;;13.67;4.00;;;5.30;94.90;;;;;;4441876;28;656625;-70
2023/03/12 12:51:57;;;;;;;5.83;3.33;;;5.80;92.20;;;;;;4417180;28;657448;-73
2023/03/12 12:54:50;;;;;;;10.20;5.00;;;5.40;91.50;;;;;;4414693;28;656533;-70
2023/03/12 12:57:39;;;;;;;12.30;4.73;;;5.20;92.80;;;;;;4411746;28;656545;-69
2023/03/12 13:00:37;;;;;;;7.87;4.03;;;4.90;92.90;;;;;;4419921;28;656787;-69
2023/03/12 13:03:25;;;;;;;13.60;4.97;;;5.00;96.10;;;;;;4419551;28;656081;-70
2023/03/12 13:06:12;;;;;;;12.60;5.00;;;5.50;93.70;;;;;;4414859;28;658526;-70
2023/03/12 13:09:13;;;;;;;9.40;3.85;;;5.20;96.00;;;;;;4438238;28;656511;-70
2023/03/12 13:12:06;;;;;;;7.27;3.33;;;5.40;95.20;;;;;;4393095;28;655329;-70
2023/03/12 13:14:53;;;;;;;8.73;3.60;;;5.10;91.40;;;;;;4416972;28;655603;-70
2023/03/12 13:18:03;;;;;;;11.63;4.47;;;5.00;92.70;;;;;;4424195;28;655267;-70
2023/03/12 13:21:12;;;;;;;10.63;4.07;;;5.30;91.80;;;;;;4392610;28;657056;-71
2023/03/12 13:24:09;;;;;;;9.73;4.63;;;5.10;92.40;;;;;;4402773;28;656240;-71
2023/03/12 13:26:58;;;;;;;11.43;4.93;;;5.10;91.90;;;;;;4396945;28;657091;-72
2023/03/12 13:29:46;;;;;;;11.20;4.40;;;5.60;93.10;;;;;;4418213;28;657332;-72
2023/03/12 13:33:09;;;;;;;10.13;4.07;;;6.60;92.30;;;;;;4445701;28;657277;-72
2023/03/12 13:36:04;;;;;;;8.70;4.40;;;7.20;84.30;;;;;;4377980;28;656778;-70
2023/03/12 13:38:56;;;;;;;8.23;4.20;;;6.20;89.50;;;;;;4424839;28;656616;-70
2023/03/12 13:41:48;;;;;;;6.33;3.73;;;6.80;84.10;;;;;;4416542;28;655495;-70
2023/03/12 13:44:38;;;;;;;11.10;4.60;;;5.50;83.70;;;;;;4423113;28;655701;-70
2023/03/12 13:47:27;;;;;;;9.68;4.75;;;5.60;84.40;;;;;;4407934;28;656903;-70
2023/03/12 13:50:15;;;;;;;7.57;4.07;;;5.40;86.20;;;;;;4438934;28;655500;-69
2023/03/12 13:53:04;;;;;;;10.77;4.10;;;5.70;85.90;;;;;;4417314;28;656949;-69
2023/03/12 13:56:00;;;;;;;9.93;3.77;;;5.60;88.10;;;;;;4414672;28;656695;-69
2023/03/12 13:58:54;;;;;;;15.87;4.30;;;6.00;81.70;;;;;;4380231;28;656466;-69
2023/03/12 14:01:43;;;;;;;9.70;4.13;;;5.80;81.90;;;;;;4415219;28;656989;-70
2023/03/12 14:04:34;;;;;;;6.50;3.23;;;5.80;78.90;;;;;;4433786;28;655517;-71
2023/03/12 14:07:38;;;;;;;10.03;3.33;;;6.00;82.30;;;;;;4422375;28;655574;-72
2023/03/12 14:10:30;;;;;;;9.70;4.20;;;5.90;76.80;;;;;;4398670;28;656659;-72
2023/03/12 14:13:25;;;;;;;8.80;3.87;;;5.90;78.50;;;;;;4425978;28;656346;-72
2023/03/12 14:16:17;;;;;;;8.97;4.43;;;6.20;80.30;;;;;;4394135;28;656632;-71
2023/03/12 14:19:04;;;;;;;7.57;3.93;;;5.90;82.00;;;;;;4419294;28;655201;-70
2023/03/12 14:21:51;;;;;;;9.00;4.60;;;5.60;82.20;;;;;;4414615;28;655446;-70
2023/03/12 14:24:40;;;;;;;8.63;4.10;;;5.80;78.70;;;;;;4440152;28;655691;-70